createdAt,value
2016-05-14T00:00:17.466Z,10.75
2016-05-14T00:01:17.436Z,10.74
2016-05-14T00:02:17.408Z,10.78
2016-05-14T00:03:17.395Z,10.76
2016-05-14T00:04:17.366Z,10.68
2016-05-14T00:05:17.183Z,10.71
2016-05-14T00:06:17.324Z,10.72
2016-05-14T00:07:17.297Z,10.64
2016-05-14T00:08:17.127Z,10.68
2016-05-14T00:09:17.255Z,10.64
2016-05-14T00:10:17.226Z,10.54
2016-05-14T00:11:17.198Z,10.61
2016-05-14T00:12:17.013Z,10.57
2016-05-14T00:13:17.157Z,10.49
2016-05-14T00:14:17.129Z,10.54
2016-05-14T00:15:16.943Z,10.56
2016-05-14T00:16:17.087Z,10.56
2016-05-14T00:17:17.057Z,10.51
2016-05-14T00:18:17.327Z,10.44
2016-05-14T00:19:17.017Z,10.42
2016-05-14T00:20:17.004Z,10.42
2016-05-14T00:21:16.959Z,10.34
2016-05-14T00:22:16.931Z,10.41
2016-05-14T00:23:16.918Z,10.38
2016-05-14T00:24:16.906Z,10.35
2016-05-14T00:25:16.876Z,10.31
2016-05-14T00:26:16.847Z,10.38
2016-05-14T00:27:16.819Z,10.37
2016-05-14T00:28:16.806Z,10.34
2016-05-14T00:29:16.778Z,10.34
2016-05-14T00:30:16.749Z,10.31
2016-05-14T00:31:16.720Z,10.31
2016-05-14T00:32:16.708Z,10.34
2016-05-14T00:33:16.680Z,10.3
2016-05-14T00:34:16.650Z,10.31
2016-05-14T00:35:16.621Z,10.26
2016-05-14T00:36:16.609Z,10.3
2016-05-14T00:37:16.580Z,10.33
2016-05-14T00:38:16.552Z,10.28
2016-05-14T00:39:16.539Z,10.33
2016-05-14T00:40:16.510Z,10.3
2016-05-14T00:41:16.497Z,10.34
2016-05-14T00:42:16.469Z,10.28
2016-05-14T00:43:16.440Z,10.31
2016-05-14T00:44:16.412Z,10.25
2016-05-14T00:45:16.398Z,10.3
2016-05-14T00:46:16.371Z,10.3
2016-05-14T00:47:16.343Z,10.28
2016-05-14T00:48:16.610Z,10.3
2016-05-14T00:49:16.316Z,10.3
2016-05-14T00:50:16.271Z,10.33
2016-05-14T00:51:16.087Z,10.33
2016-05-14T00:52:16.230Z,10.17
2016-05-14T00:53:16.201Z,10.3
2016-05-14T00:54:16.173Z,10.28
2016-05-14T00:55:16.145Z,10.17
2016-05-14T00:56:16.132Z,10.17
2016-05-14T00:57:16.103Z,10.15
2016-05-14T00:58:16.089Z,10.17
2016-05-14T00:59:16.061Z,10.16
2016-05-14T01:00:15.877Z,10.05
2016-05-14T01:01:16.005Z,10.13
2016-05-14T01:02:15.976Z,10.12
2016-05-14T01:03:16.010Z,10.05
2016-05-14T01:04:15.934Z,10.04
2016-05-14T01:05:15.905Z,9.98
2016-05-14T01:06:15.736Z,10.01
2016-05-14T01:07:15.864Z,10.09
2016-05-14T01:08:15.680Z,10.02
2016-05-14T01:09:15.823Z,9.99
2016-05-14T01:10:15.794Z,10.04
2016-05-14T01:11:15.766Z,10.1
2016-05-14T01:12:15.580Z,10.02
2016-05-14T01:13:15.724Z,10.09
2016-05-14T01:14:15.696Z,10.04
2016-05-14T01:15:15.667Z,10.09
2016-05-14T01:16:15.655Z,10.12
2016-05-14T01:17:15.469Z,10.05
2016-05-14T01:18:15.596Z,10.05
2016-05-14T01:19:15.585Z,10.15
2016-05-14T01:20:15.556Z,10.13
2016-05-14T01:21:15.526Z,10.13
2016-05-14T01:22:15.498Z,10.12
2016-05-14T01:23:15.485Z,10.13
2016-05-14T01:24:15.457Z,10.19
2016-05-14T01:25:15.428Z,10.19
2016-05-14T01:26:15.400Z,10.26
2016-05-14T01:27:15.387Z,10.22
2016-05-14T01:28:15.217Z,10.3
2016-05-14T01:29:15.173Z,10.3
2016-05-14T01:30:15.317Z,10.26
2016-05-14T01:31:15.289Z,10.26
2016-05-14T01:32:15.260Z,10.2
2016-05-14T01:33:15.247Z,10.23
2016-05-14T01:34:15.219Z,10.22
2016-05-14T01:35:15.190Z,10.16
2016-05-14T01:36:15.161Z,10.19
2016-05-14T01:37:15.147Z,10.15
2016-05-14T01:38:15.119Z,10.16
2016-05-14T01:39:18.294Z,10.3
2016-05-14T01:40:15.094Z,10.31
2016-05-14T01:41:15.049Z,10.31
2016-05-14T01:42:14.866Z,10.22
2016-05-14T01:43:15.007Z,10.28
2016-05-14T01:44:14.979Z,10.3
2016-05-14T01:45:14.794Z,10.3
2016-05-14T01:46:14.938Z,10.3
2016-05-14T01:47:14.910Z,10.15
2016-05-14T01:48:14.881Z,10.35
2016-05-14T01:49:14.712Z,10.3
2016-05-14T01:50:14.682Z,10.3
2016-05-14T01:51:14.811Z,10.26
2016-05-14T01:52:14.782Z,10.28
2016-05-14T01:53:14.770Z,10.23
2016-05-14T01:54:14.740Z,10.3
2016-05-14T01:55:14.712Z,10.26
2016-05-14T01:56:14.699Z,10.3
2016-05-14T01:57:14.670Z,10.25
2016-05-14T01:58:14.643Z,10.19
2016-05-14T01:59:14.614Z,10.31
2016-05-14T02:00:14.445Z,10.25
2016-05-14T02:01:14.416Z,10.31
2016-05-14T02:02:14.575Z,10.17
2016-05-14T02:03:14.390Z,10.19
2016-05-14T02:04:14.502Z,10.16
2016-05-14T02:05:14.473Z,10.07
2016-05-14T02:06:14.444Z,10.19
2016-05-14T02:07:14.432Z,10.1
2016-05-14T02:08:14.403Z,10.22
2016-05-14T02:09:14.375Z,10.15
2016-05-14T02:10:14.206Z,10.1
2016-05-14T02:11:14.333Z,10.09
2016-05-14T02:12:14.164Z,10.12
2016-05-14T02:13:14.291Z,10.13
2016-05-14T02:14:14.263Z,10.09
2016-05-14T02:15:14.235Z,10.02
2016-05-14T02:16:14.066Z,9.99
2016-05-14T02:17:14.194Z,9.94
2016-05-14T02:18:14.165Z,9.97
2016-05-14T02:19:14.136Z,9.98
2016-05-14T02:20:14.123Z,9.91
2016-05-14T02:21:14.095Z,9.8
2016-05-14T02:22:14.066Z,9.8
2016-05-14T02:23:14.053Z,9.74
2016-05-14T02:24:14.024Z,9.82
2016-05-14T02:25:13.996Z,9.74
2016-05-14T02:26:13.968Z,9.72
2016-05-14T02:27:13.954Z,9.72
2016-05-14T02:28:13.941Z,9.69
2016-05-14T02:29:13.898Z,9.68
2016-05-14T02:30:13.870Z,9.74
2016-05-14T02:31:13.856Z,9.73
2016-05-14T02:32:13.828Z,9.69
2016-05-14T02:33:13.987Z,9.76
2016-05-14T02:34:13.786Z,9.74
2016-05-14T02:35:13.758Z,9.69
2016-05-14T02:36:13.728Z,9.72
2016-05-14T02:37:13.700Z,9.74
2016-05-14T02:38:13.531Z,9.72
2016-05-14T02:39:13.659Z,9.72
2016-05-14T02:40:13.631Z,9.77
2016-05-14T02:41:13.680Z,9.73
2016-05-14T02:42:13.651Z,9.74
2016-05-14T02:43:13.622Z,9.68
2016-05-14T02:44:13.375Z,9.68
2016-05-14T02:45:13.519Z,9.64
2016-05-14T02:46:13.490Z,9.65
2016-05-14T02:47:13.461Z,9.61
2016-05-14T02:48:13.449Z,9.64
2016-05-14T02:49:13.420Z,9.61
2016-05-14T02:50:13.391Z,9.68
2016-05-14T02:51:13.362Z,9.69
2016-05-14T02:52:13.349Z,9.66
2016-05-14T02:53:13.322Z,9.72
2016-05-14T02:54:13.292Z,9.73
2016-05-14T02:55:13.264Z,9.76
2016-05-14T02:56:13.251Z,9.69
2016-05-14T02:57:13.223Z,9.64
2016-05-14T02:58:13.195Z,9.59
2016-05-14T02:59:13.181Z,9.62
2016-05-14T03:00:13.153Z,9.62
2016-05-14T03:01:13.123Z,9.59
2016-05-14T03:02:13.095Z,9.65
2016-05-14T03:03:13.083Z,9.61
2016-05-14T03:04:13.054Z,9.55
2016-05-14T03:05:12.869Z,9.62
2016-05-14T03:06:12.997Z,9.55
2016-05-14T03:07:12.984Z,9.56
2016-05-14T03:08:12.955Z,9.51
2016-05-14T03:09:12.927Z,9.46
2016-05-14T03:10:12.914Z,9.5
2016-05-14T03:11:12.729Z,9.56
2016-05-14T03:12:12.857Z,9.54
2016-05-14T03:13:12.688Z,9.43
2016-05-14T03:14:12.800Z,9.48
2016-05-14T03:15:12.786Z,9.56
2016-05-14T03:16:12.602Z,9.55
2016-05-14T03:17:12.746Z,9.51
2016-05-14T03:18:13.435Z,9.55
2016-05-14T03:19:12.688Z,9.55
2016-05-14T03:20:12.659Z,9.5
2016-05-14T03:21:12.646Z,9.5
2016-05-14T03:22:12.618Z,9.54
2016-05-14T03:23:12.590Z,9.54
2016-05-14T03:24:12.561Z,9.5
2016-05-14T03:25:12.532Z,9.44
2016-05-14T03:26:12.520Z,9.48
2016-05-14T03:27:12.490Z,9.39
2016-05-14T03:28:12.462Z,9.39
2016-05-14T03:29:12.449Z,9.48
2016-05-14T03:30:12.420Z,9.47
2016-05-14T03:31:12.393Z,9.47
2016-05-14T03:32:12.364Z,9.47
2016-05-14T03:33:12.351Z,9.48
2016-05-14T03:34:12.166Z,9.54
2016-05-14T03:35:12.294Z,9.51
2016-05-14T03:36:12.281Z,9.47
2016-05-14T03:37:12.252Z,9.55
2016-05-14T03:38:12.223Z,9.47
2016-05-14T03:39:12.195Z,9.43
2016-05-14T03:40:12.167Z,9.58
2016-05-14T03:41:12.153Z,9.47
2016-05-14T03:42:12.125Z,9.54
2016-05-14T03:43:11.956Z,9.54
2016-05-14T03:44:12.083Z,9.54
2016-05-14T03:45:11.899Z,9.41
2016-05-14T03:46:12.026Z,9.39
2016-05-14T03:47:11.997Z,9.44
2016-05-14T03:48:11.985Z,9.48
2016-05-14T03:49:11.956Z,9.41
2016-05-14T03:50:11.927Z,9.41
2016-05-14T03:51:11.899Z,9.34
2016-05-14T03:52:11.871Z,9.28
2016-05-14T03:53:11.857Z,9.34
2016-05-14T03:54:11.829Z,9.28
2016-05-14T03:55:11.801Z,9.23
2016-05-14T03:56:11.787Z,9.26
2016-05-14T03:57:11.604Z,9.23
2016-05-14T03:58:11.730Z,9.23
2016-05-14T03:59:11.717Z,9.23
2016-05-14T04:00:11.690Z,9.25
2016-05-14T04:01:11.504Z,9.26
2016-05-14T04:02:11.632Z,9.25
2016-05-14T04:03:11.665Z,9.31
2016-05-14T04:04:11.590Z,9.22
2016-05-14T04:05:11.562Z,9.22
2016-05-14T04:06:11.533Z,9.22
2016-05-14T04:07:11.364Z,9.23
2016-05-14T04:08:11.492Z,9.25
2016-05-14T04:09:11.464Z,9.16
2016-05-14T04:10:11.435Z,9.22
2016-05-14T04:11:11.406Z,9.19
2016-05-14T04:12:11.394Z,9.14
2016-05-14T04:13:11.364Z,9.18
2016-05-14T04:14:11.336Z,9.16
2016-05-14T04:15:11.307Z,9.13
2016-05-14T04:16:11.279Z,9.08
2016-05-14T04:17:11.266Z,9.11
2016-05-14T04:18:11.238Z,9.13
2016-05-14T04:19:11.208Z,9.11
2016-05-14T04:20:11.046Z,9.16
2016-05-14T04:21:11.217Z,9.14
2016-05-14T04:22:11.230Z,9.22
2016-05-14T04:23:11.245Z,9.23
2016-05-14T04:24:11.259Z,9.23
2016-05-14T04:25:11.285Z,9.28
2016-05-14T04:26:11.273Z,9.26
2016-05-14T04:27:11.259Z,9.21
2016-05-14T04:28:11.278Z,9.19
2016-05-14T04:29:11.249Z,9.19
2016-05-14T04:30:11.234Z,9.26
2016-05-14T04:31:11.211Z,9.28
2016-05-14T04:32:11.188Z,9.26
2016-05-14T04:33:11.181Z,9.19
2016-05-14T04:34:11.174Z,9.22
2016-05-14T04:35:10.994Z,9.13
2016-05-14T04:36:11.124Z,9.22
2016-05-14T04:37:11.098Z,9.22
2016-05-14T04:38:11.086Z,9.31
2016-05-14T04:39:11.045Z,9.25
2016-05-14T04:40:11.033Z,9.31
2016-05-14T04:41:11.006Z,9.34
2016-05-14T04:42:10.977Z,9.29
2016-05-14T04:43:10.966Z,9.31
2016-05-14T04:44:10.938Z,9.19
2016-05-14T04:45:10.910Z,9.26
2016-05-14T04:46:10.725Z,9.25
2016-05-14T04:47:10.869Z,9.18
2016-05-14T04:48:10.840Z,9.16
2016-05-14T04:49:10.813Z,9.21
2016-05-14T04:50:10.785Z,9.23
2016-05-14T04:51:10.615Z,9.19
2016-05-14T04:52:10.758Z,9.16
2016-05-14T04:53:10.714Z,9.22
2016-05-14T04:54:10.685Z,9.19
2016-05-14T04:55:10.673Z,9.25
2016-05-14T04:56:10.488Z,9.23
2016-05-14T04:57:10.616Z,9.23
2016-05-14T04:58:10.603Z,9.26
2016-05-14T04:59:10.574Z,9.22
2016-05-14T05:00:10.389Z,9.28
2016-05-14T05:01:10.532Z,9.28
2016-05-14T05:02:10.504Z,9.26
2016-05-14T05:03:10.475Z,9.23
2016-05-14T05:04:10.448Z,9.25
2016-05-14T05:05:10.434Z,9.36
2016-05-14T05:06:10.406Z,9.36
2016-05-14T05:07:10.378Z,9.36
2016-05-14T05:08:10.348Z,9.4
2016-05-14T05:09:10.336Z,9.44
2016-05-14T05:10:10.306Z,9.44
2016-05-14T05:11:10.278Z,9.56
2016-05-14T05:12:10.109Z,9.58
2016-05-14T05:13:10.237Z,9.58
2016-05-14T05:14:10.209Z,9.58
2016-05-14T05:15:10.195Z,9.58
2016-05-14T05:16:10.167Z,9.59
2016-05-14T05:17:10.138Z,9.48
2016-05-14T05:18:09.969Z,9.48
2016-05-14T05:19:09.987Z,9.58
2016-05-14T05:20:10.069Z,9.59
2016-05-14T05:21:10.040Z,9.46
2016-05-14T05:22:10.027Z,9.56
2016-05-14T05:23:09.999Z,9.46
2016-05-14T05:24:09.969Z,9.48
2016-05-14T05:25:09.941Z,9.48
2016-05-14T05:26:09.943Z,9.44
2016-05-14T05:27:09.915Z,9.44
2016-05-14T05:28:09.887Z,9.46
2016-05-14T05:29:09.858Z,9.43
2016-05-14T05:30:09.829Z,9.46
2016-05-14T05:31:09.801Z,9.56
2016-05-14T05:32:09.788Z,9.59
2016-05-14T05:33:09.759Z,9.55
2016-05-14T05:34:09.590Z,9.61
2016-05-14T05:35:09.718Z,9.56
2016-05-14T05:36:09.689Z,9.65
2016-05-14T05:37:09.676Z,9.64
2016-05-14T05:38:09.648Z,9.56
2016-05-14T05:39:09.619Z,9.64
2016-05-14T05:40:09.606Z,9.64
2016-05-14T05:41:09.577Z,9.77
2016-05-14T05:42:09.549Z,9.73
2016-05-14T05:43:09.521Z,9.69
2016-05-14T05:44:09.508Z,9.65
2016-05-14T05:45:09.339Z,9.64
2016-05-14T05:46:09.466Z,9.66
2016-05-14T05:47:09.438Z,9.62
2016-05-14T05:48:09.409Z,9.58
2016-05-14T05:49:10.005Z,9.59
2016-05-14T05:50:09.368Z,9.56
2016-05-14T05:51:09.338Z,9.56
2016-05-14T05:52:09.311Z,9.58
2016-05-14T05:53:09.298Z,9.58
2016-05-14T05:54:09.269Z,9.59
2016-05-14T05:55:09.257Z,9.61
2016-05-14T05:56:09.227Z,9.68
2016-05-14T05:57:09.199Z,9.62
2016-05-14T05:58:09.186Z,9.73
2016-05-14T05:59:09.157Z,9.68
2016-05-14T06:00:09.145Z,9.68
2016-05-14T06:01:09.115Z,9.82
2016-05-14T06:02:09.088Z,9.76
2016-05-14T06:03:09.059Z,9.77
2016-05-14T06:04:09.031Z,9.76
2016-05-14T06:05:09.018Z,9.82
2016-05-14T06:06:08.989Z,9.83
2016-05-14T06:07:08.976Z,9.87
2016-05-14T06:08:08.948Z,9.94
2016-05-14T06:09:08.919Z,9.97
2016-05-14T06:10:08.906Z,9.95
2016-05-14T06:11:08.877Z,9.91
2016-05-14T06:12:08.848Z,9.99
2016-05-14T06:13:08.680Z,10.12
2016-05-14T06:14:08.808Z,10.09
2016-05-14T06:15:08.795Z,10.19
2016-05-14T06:16:08.766Z,10.2
2016-05-14T06:17:08.753Z,10.31
2016-05-14T06:18:08.724Z,10.33
2016-05-14T06:19:08.727Z,10.3
2016-05-14T06:20:08.666Z,10.23
2016-05-14T06:21:08.497Z,10.28
2016-05-14T06:22:08.625Z,10.3
2016-05-14T06:23:08.613Z,10.31
2016-05-14T06:24:08.585Z,10.4
2016-05-14T06:25:08.571Z,10.4
2016-05-14T06:26:08.543Z,10.33
2016-05-14T06:27:08.529Z,10.37
2016-05-14T06:28:08.516Z,10.49
2016-05-14T06:29:08.473Z,10.48
2016-05-14T06:30:08.459Z,10.48
2016-05-14T06:31:08.431Z,10.37
2016-05-14T06:32:08.402Z,10.42
2016-05-14T06:33:08.405Z,10.42
2016-05-14T06:34:08.471Z,10.46
2016-05-14T06:35:08.348Z,10.56
2016-05-14T06:36:08.351Z,10.53
2016-05-14T06:37:08.150Z,10.48
2016-05-14T06:38:08.278Z,10.44
2016-05-14T06:39:08.265Z,10.41
2016-05-14T06:40:08.236Z,10.56
2016-05-14T06:41:08.208Z,10.56
2016-05-14T06:42:08.194Z,10.53
2016-05-14T06:43:08.166Z,10.59
2016-05-14T06:44:08.154Z,10.54
2016-05-14T06:45:08.141Z,10.54
2016-05-14T06:46:08.097Z,10.68
2016-05-14T06:47:08.083Z,10.68
2016-05-14T06:48:08.070Z,10.69
2016-05-14T06:49:08.042Z,10.63
2016-05-14T06:50:07.857Z,10.63
2016-05-14T06:51:08.032Z,10.64
2016-05-14T06:52:07.971Z,10.71
2016-05-14T06:53:07.959Z,10.71
2016-05-14T06:54:07.775Z,10.78
2016-05-14T06:55:07.902Z,10.86
2016-05-14T06:56:07.889Z,10.89
2016-05-14T06:57:07.860Z,10.96
2016-05-14T06:58:07.847Z,10.89
2016-05-14T06:59:07.819Z,10.97
2016-05-14T07:00:07.790Z,10.92
2016-05-14T07:01:07.777Z,10.9
2016-05-14T07:02:07.764Z,10.82
2016-05-14T07:03:07.735Z,10.87
2016-05-14T07:04:08.238Z,10.94
2016-05-14T07:05:07.537Z,10.9
2016-05-14T07:06:07.666Z,11.07
2016-05-14T07:07:07.653Z,11.04
2016-05-14T07:08:07.640Z,11
2016-05-14T07:09:07.612Z,10.99
2016-05-14T07:10:07.583Z,10.99
2016-05-14T07:11:07.570Z,10.99
2016-05-14T07:12:07.541Z,11.04
2016-05-14T07:13:07.512Z,11.08
2016-05-14T07:14:07.515Z,11.08
2016-05-14T07:15:07.487Z,11.15
2016-05-14T07:16:07.459Z,11.17
2016-05-14T07:17:07.430Z,11.22
2016-05-14T07:18:07.433Z,11.1
2016-05-14T07:19:07.998Z,11.22
2016-05-14T07:20:07.360Z,11.12
2016-05-14T07:21:07.347Z,11.08
2016-05-14T07:22:07.333Z,10.97
2016-05-14T07:23:07.321Z,11.04
2016-05-14T07:24:07.292Z,10.94
2016-05-14T07:25:07.280Z,11
2016-05-14T07:26:07.252Z,10.87
2016-05-14T07:27:07.221Z,10.97
2016-05-14T07:28:07.210Z,10.99
2016-05-14T07:29:07.181Z,11.04
2016-05-14T07:30:07.152Z,11.11
2016-05-14T07:31:07.140Z,11.04
2016-05-14T07:32:07.188Z,11
2016-05-14T07:33:07.113Z,11.12
2016-05-14T07:34:07.085Z,11.04
2016-05-14T07:35:07.056Z,11.02
2016-05-14T07:36:07.028Z,11.07
2016-05-14T07:37:07.015Z,11.05
2016-05-14T07:38:07.002Z,11.22
2016-05-14T07:39:06.974Z,11.15
2016-05-14T07:40:06.960Z,11.29
2016-05-14T07:41:06.932Z,11.27
2016-05-14T07:42:06.903Z,11.36
2016-05-14T07:43:06.889Z,11.44
2016-05-14T07:44:06.862Z,11.47
2016-05-14T07:45:06.692Z,11.59
2016-05-14T07:46:06.820Z,11.54
2016-05-14T07:47:06.808Z,11.6
2016-05-14T07:48:06.795Z,11.6
2016-05-14T07:49:06.767Z,11.65
2016-05-14T07:50:06.753Z,11.68
2016-05-14T07:51:06.569Z,11.69
2016-05-14T07:52:06.696Z,11.73
2016-05-14T07:53:06.527Z,11.65
2016-05-14T07:54:06.655Z,11.65
2016-05-14T07:55:06.641Z,11.65
2016-05-14T07:56:06.628Z,11.65
2016-05-14T07:57:06.631Z,11.6
2016-05-14T07:58:06.587Z,11.6
2016-05-14T07:59:06.574Z,11.55
2016-05-14T08:00:06.389Z,11.59
2016-05-14T08:01:06.517Z,11.51
2016-05-14T08:02:06.504Z,11.47
2016-05-14T08:03:06.476Z,11.51
2016-05-14T08:04:06.307Z,11.43
2016-05-14T08:05:06.434Z,11.43
2016-05-14T08:06:06.421Z,11.51
2016-05-14T08:07:06.392Z,11.5
2016-05-14T08:08:06.223Z,11.44
2016-05-14T08:09:06.351Z,11.55
2016-05-14T08:10:06.338Z,11.5
2016-05-14T08:11:06.310Z,11.6
2016-05-14T08:12:06.296Z,11.59
2016-05-14T08:13:06.267Z,11.51
2016-05-14T08:14:06.098Z,11.57
2016-05-14T08:15:06.242Z,11.48
2016-05-14T08:16:06.214Z,11.47
2016-05-14T08:17:06.184Z,11.52
2016-05-14T08:18:06.016Z,11.55
2016-05-14T08:19:06.144Z,11.54
2016-05-14T08:20:06.130Z,11.63
2016-05-14T08:21:06.102Z,11.68
2016-05-14T08:22:06.089Z,11.68
2016-05-14T08:23:06.061Z,11.52
2016-05-14T08:24:06.047Z,11.6
2016-05-14T08:25:05.863Z,11.62
2016-05-14T08:26:06.006Z,11.5
2016-05-14T08:27:05.977Z,11.47
2016-05-14T08:28:05.964Z,11.47
2016-05-14T08:29:05.951Z,11.48
2016-05-14T08:30:05.907Z,11.55
2016-05-14T08:31:05.894Z,11.47
2016-05-14T08:32:05.882Z,11.54
2016-05-14T08:33:05.869Z,11.62
2016-05-14T08:34:05.856Z,11.6
2016-05-14T08:35:05.827Z,11.54
2016-05-14T08:36:05.783Z,11.63
2016-05-14T08:37:05.770Z,11.7
2016-05-14T08:38:05.757Z,11.72
2016-05-14T08:39:05.729Z,11.84
2016-05-14T08:40:05.715Z,11.87
2016-05-14T08:41:05.687Z,11.94
2016-05-14T08:42:05.674Z,11.88
2016-05-14T08:43:05.489Z,11.9
2016-05-14T08:44:05.632Z,11.97
2016-05-14T08:45:05.604Z,11.95
2016-05-14T08:46:05.592Z,11.95
2016-05-14T08:47:05.562Z,11.99
2016-05-14T08:48:05.550Z,11.88
2016-05-14T08:49:06.162Z,11.84
2016-05-14T08:50:05.508Z,11.77
2016-05-14T08:51:05.339Z,11.8
2016-05-14T08:52:05.466Z,11.72
2016-05-14T08:53:05.453Z,11.86
2016-05-14T08:54:05.441Z,11.83
2016-05-14T08:55:05.412Z,11.88
2016-05-14T08:56:05.383Z,12.02
2016-05-14T08:57:05.386Z,12.13
2016-05-14T08:58:05.358Z,12.24
2016-05-14T08:59:05.330Z,12.35
2016-05-14T09:00:05.316Z,12.42
2016-05-14T09:01:05.288Z,12.37
2016-05-14T09:02:05.274Z,12.39
2016-05-14T09:03:05.246Z,12.32
2016-05-14T09:04:05.358Z,12.32
2016-05-14T09:05:05.251Z,12.31
2016-05-14T09:06:05.191Z,12.25
2016-05-14T09:07:05.178Z,12.12
2016-05-14T09:08:05.151Z,12.12
2016-05-14T09:09:05.138Z,12.04
2016-05-14T09:10:05.124Z,11.94
2016-05-14T09:11:05.096Z,12.02
2016-05-14T09:12:05.082Z,12.06
2016-05-14T09:13:05.054Z,12.15
2016-05-14T09:14:04.885Z,12.2
2016-05-14T09:15:05.012Z,12.24
2016-05-14T09:16:05.000Z,12.18
2016-05-14T09:17:04.986Z,12.25
2016-05-14T09:18:04.958Z,12.27
2016-05-14T09:19:04.946Z,12.36
2016-05-14T09:20:04.932Z,12.36
2016-05-14T09:21:04.904Z,12.4
2016-05-14T09:22:04.875Z,12.39
2016-05-14T09:23:04.862Z,12.47
2016-05-14T09:24:04.834Z,12.5
2016-05-14T09:25:04.836Z,12.55
2016-05-14T09:26:04.808Z,12.6
2016-05-14T09:27:04.779Z,12.73
2016-05-14T09:28:04.766Z,12.79
2016-05-14T09:29:04.738Z,12.75
2016-05-14T09:30:04.724Z,12.67
2016-05-14T09:31:04.728Z,12.65
2016-05-14T09:32:04.527Z,12.61
2016-05-14T09:33:04.671Z,12.47
2016-05-14T09:34:04.658Z,12.46
2016-05-14T09:35:04.629Z,12.46
2016-05-14T09:36:04.616Z,12.47
2016-05-14T09:37:04.587Z,12.49
2016-05-14T09:38:04.574Z,12.55
2016-05-14T09:39:04.562Z,12.61
2016-05-14T09:40:04.392Z,12.68
2016-05-14T09:41:04.520Z,12.6
2016-05-14T09:42:04.506Z,12.5
2016-05-14T09:43:04.478Z,12.53
2016-05-14T09:44:04.466Z,12.54
2016-05-14T09:45:04.531Z,12.4
2016-05-14T09:46:04.424Z,12.35
2016-05-14T09:47:04.270Z,12.24
2016-05-14T09:48:04.383Z,12.27
2016-05-14T09:49:04.932Z,12.31
2016-05-14T09:50:04.341Z,12.36
2016-05-14T09:51:04.328Z,12.27
2016-05-14T09:52:04.144Z,12.32
2016-05-14T09:53:04.286Z,12.29
2016-05-14T09:54:04.274Z,12.39
2016-05-14T09:55:04.245Z,12.35
2016-05-14T09:56:04.233Z,12.36
2016-05-14T09:57:04.203Z,12.43
2016-05-14T09:58:04.191Z,12.49
2016-05-14T09:59:04.006Z,12.53
2016-05-14T10:00:04.149Z,12.68
2016-05-14T10:01:04.136Z,12.86
2016-05-14T10:02:04.108Z,12.94
2016-05-14T10:03:04.094Z,13.04
2016-05-14T10:04:04.457Z,13.3
2016-05-14T10:05:04.085Z,13.57
2016-05-14T10:06:04.040Z,13.89
2016-05-14T10:07:03.871Z,13.93
2016-05-14T10:08:03.999Z,13.9
2016-05-14T10:09:03.986Z,13.9
2016-05-14T10:10:03.974Z,13.89
2016-05-14T10:11:03.959Z,13.89
2016-05-14T10:12:03.948Z,13.72
2016-05-14T10:13:03.919Z,13.77
2016-05-14T10:14:03.906Z,13.62
2016-05-14T10:15:03.737Z,13.62
2016-05-14T10:16:03.864Z,13.6
2016-05-14T10:17:03.851Z,13.63
2016-05-14T10:18:03.839Z,13.59
2016-05-14T10:19:03.684Z,13.7
2016-05-14T10:20:03.797Z,13.68
2016-05-14T10:21:03.799Z,13.6
2016-05-14T10:22:03.786Z,13.53
2016-05-14T10:23:03.759Z,13.39
2016-05-14T10:24:03.745Z,13.3
2016-05-14T10:25:03.717Z,13.13
2016-05-14T10:26:03.703Z,13.18
2016-05-14T10:27:03.675Z,13.2
2016-05-14T10:28:03.662Z,13.28
2016-05-14T10:29:03.493Z,13.18
2016-05-14T10:30:03.621Z,13.27
2016-05-14T10:31:03.608Z,13.22
2016-05-14T10:32:03.579Z,13.23
2016-05-14T10:33:03.566Z,13.28
2016-05-14T10:34:04.007Z,13.35
2016-05-14T10:35:03.540Z,13.46
2016-05-14T10:36:03.371Z,13.56
2016-05-14T10:37:03.499Z,13.89
2016-05-14T10:38:03.486Z,14.12
2016-05-14T10:39:03.474Z,14.35
2016-05-14T10:40:03.444Z,14.3
2016-05-14T10:41:03.447Z,14.33
2016-05-14T10:42:03.419Z,14.32
2016-05-14T10:43:03.249Z,14.33
2016-05-14T10:44:03.393Z,14.33
2016-05-14T10:45:03.364Z,14.47
2016-05-14T10:46:03.367Z,14.5
2016-05-14T10:47:03.198Z,14.63
2016-05-14T10:48:03.169Z,14.86
2016-05-14T10:49:03.609Z,14.89
2016-05-14T10:50:03.299Z,15.06
2016-05-14T10:51:03.130Z,15.28
2016-05-14T10:52:03.259Z,15.17
2016-05-14T10:53:03.245Z,15.07
2016-05-14T10:54:03.231Z,15.14
2016-05-14T10:55:03.063Z,15.14
2016-05-14T10:56:03.206Z,15.15
2016-05-14T10:57:03.194Z,15.11
2016-05-14T10:58:03.180Z,15.11
2016-05-14T10:59:03.152Z,15.1
2016-05-14T11:00:02.998Z,15.25
2016-05-14T11:01:03.126Z,15.24
2016-05-14T11:02:03.128Z,15.1
2016-05-14T11:03:03.100Z,15.19
2016-05-14T11:04:03.087Z,15.15
2016-05-14T11:05:03.074Z,14.94
2016-05-14T11:06:03.061Z,14.86
2016-05-14T11:07:03.032Z,14.84
2016-05-14T11:08:03.020Z,14.72
2016-05-14T11:09:03.006Z,14.55
2016-05-14T11:10:02.993Z,14.33
2016-05-14T11:11:02.982Z,14.23
2016-05-14T11:12:02.952Z,14.03
2016-05-14T11:13:02.940Z,14.04
2016-05-14T11:14:02.942Z,13.89
2016-05-14T11:15:02.898Z,13.74
2016-05-14T11:16:02.885Z,13.68
2016-05-14T11:17:02.873Z,13.74
2016-05-14T11:18:02.703Z,13.7
2016-05-14T11:19:03.706Z,13.72
2016-05-14T11:20:02.818Z,13.79
2016-05-14T11:21:02.804Z,13.81
2016-05-14T11:22:02.776Z,13.86
2016-05-14T11:23:02.763Z,13.75
2016-05-14T11:24:02.812Z,13.86
2016-05-14T11:25:02.722Z,14.12
2016-05-14T11:26:02.709Z,14.33
2016-05-14T11:27:02.696Z,14.28
2016-05-14T11:28:02.683Z,14.23
2016-05-14T11:29:02.654Z,14.22
2016-05-14T11:30:02.641Z,14.1
2016-05-14T11:31:02.628Z,14.07
2016-05-14T11:32:02.616Z,14.03
2016-05-14T11:33:02.586Z,14.05
2016-05-14T11:34:03.105Z,13.99
2016-05-14T11:35:02.561Z,14.03
2016-05-14T11:36:02.549Z,13.87
2016-05-14T11:37:02.519Z,13.93
2016-05-14T11:38:02.507Z,13.89
2016-05-14T11:39:02.494Z,13.99
2016-05-14T11:40:02.480Z,13.97
2016-05-14T11:41:02.452Z,13.99
2016-05-14T11:42:02.439Z,14.07
2016-05-14T11:43:02.410Z,14.03
2016-05-14T11:44:02.398Z,14.07
2016-05-14T11:45:02.401Z,13.99
2016-05-14T11:46:02.371Z,14.03
2016-05-14T11:47:02.343Z,14.11
2016-05-14T11:48:02.331Z,14.1
2016-05-14T11:49:02.318Z,14.04
2016-05-14T11:50:02.304Z,14.11
2016-05-14T11:51:02.276Z,14.18
2016-05-14T11:52:02.263Z,14.33
2016-05-14T11:53:02.266Z,14.65
2016-05-14T11:54:02.237Z,14.72
2016-05-14T11:55:02.209Z,14.92
2016-05-14T11:56:02.211Z,15
2016-05-14T11:57:02.183Z,14.89
2016-05-14T11:58:02.170Z,15.11
2016-05-14T11:59:02.156Z,15.15
2016-05-14T12:00:01.988Z,15.19
2016-05-14T12:01:02.130Z,15.19
2016-05-14T12:02:02.118Z,15.21
2016-05-14T12:03:01.949Z,15.21
2016-05-14T12:04:02.108Z,15.22
2016-05-14T12:05:02.079Z,15.14
2016-05-14T12:06:02.066Z,15.17
2016-05-14T12:07:02.053Z,15.22
2016-05-14T12:08:02.024Z,15.25
2016-05-14T12:09:02.028Z,15.06
2016-05-14T12:10:01.842Z,14.99
2016-05-14T12:11:01.985Z,14.91
2016-05-14T12:12:01.816Z,14.92
2016-05-14T12:13:01.960Z,14.86
2016-05-14T12:14:01.947Z,14.96
2016-05-14T12:15:01.763Z,15
2016-05-14T12:16:01.907Z,14.99
2016-05-14T12:17:01.893Z,15.15
2016-05-14T12:18:03.052Z,15.19
2016-05-14T12:19:01.851Z,15.33
2016-05-14T12:20:01.838Z,15.44
2016-05-14T12:21:01.826Z,15.58
2016-05-14T12:22:01.812Z,15.47
2016-05-14T12:23:01.800Z,15.42
2016-05-14T12:24:01.771Z,15.42
2016-05-14T12:25:01.773Z,15.51
2016-05-14T12:26:01.604Z,15.42
2016-05-14T12:27:01.748Z,15.57
2016-05-14T12:28:01.719Z,15.54
2016-05-14T12:29:01.706Z,15.61
2016-05-14T12:30:01.709Z,15.8
2016-05-14T12:31:01.680Z,15.84
2016-05-14T12:32:01.667Z,15.76
2016-05-14T12:33:01.669Z,15.68
2016-05-14T12:34:01.657Z,15.55
2016-05-14T12:35:01.488Z,15.65
2016-05-14T12:36:01.616Z,15.65
2016-05-14T12:37:01.618Z,15.76
2016-05-14T12:38:01.449Z,15.75
2016-05-14T12:39:01.452Z,15.84
2016-05-14T12:40:01.580Z,15.97
2016-05-14T12:41:01.395Z,16.17
2016-05-14T12:42:01.538Z,16.12
2016-05-14T12:43:01.525Z,16.04
2016-05-14T12:44:01.357Z,15.86
2016-05-14T12:45:01.499Z,16.01
2016-05-14T12:46:01.346Z,16.04
2016-05-14T12:47:01.473Z,16.05
2016-05-14T12:48:01.476Z,16.02
2016-05-14T12:49:01.463Z,16.09
2016-05-14T12:50:01.434Z,16.12
2016-05-14T12:51:01.266Z,15.91
2016-05-14T12:52:01.409Z,15.76
2016-05-14T12:53:01.395Z,15.68
2016-05-14T12:54:01.383Z,15.61
2016-05-14T12:55:01.370Z,15.68
2016-05-14T12:56:01.201Z,15.72
2016-05-14T12:57:01.344Z,15.83
2016-05-14T12:58:01.175Z,15.79
2016-05-14T12:59:01.147Z,15.83
2016-05-14T13:00:01.289Z,15.9
2016-05-14T13:01:01.120Z,16.01
2016-05-14T13:02:01.108Z,16.05
2016-05-14T13:03:01.250Z,16.09